Time;durP1;ratioP1;P1;durP2;ratioP2;P2;SDS_P1;SDS_P2;PMS_P1;PMS_P2;Temp;Humidity;BMP_temperature;BMP_pressure;BME280_temperature;BME280_humidity;BME280_pressure;Samples;Min_cycle;Max_cycle;Signal;HPM_P1;HPM_P2
2022/09/25 00:00:11;;;;;;;0.60;0.60;;;;;;;;;;5051127;28;20036;-82
2022/09/25 00:02:36;;;;;;;0.35;0.35;;;;;;;;;;5049222;28;20024;-82
2022/09/25 00:05:02;;;;;;;1.23;0.60;;;;;;;;;;5050254;28;20017;-82
2022/09/25 00:07:27;;;;;;;1.08;0.28;;;;;;;;;;5051807;28;20381;-82
2022/09/25 00:09:52;;;;;;;0.85;0.82;;;;;;;;;;5050518;28;20021;-81
2022/09/25 00:12:18;;;;;;;0.38;0.35;;;;;;;;;;5050587;28;20040;-81
2022/09/25 00:14:43;;;;;;;0.30;0.30;;;;;;;;;;5049852;28;20048;-83
2022/09/25 00:17:09;;;;;;;0.22;0.22;;;;;;;;;;5051992;28;20099;-83
2022/09/25 00:19:49;;;;;;;0.22;0.20;;;;;;;;;;5051778;28;20027;-81
2022/09/25 00:22:21;;;;;;;0.47;0.40;;;;;;;;;;5051097;28;20108;-81
2022/09/25 00:24:46;;;;;;;0.73;0.43;;;;;;;;;;5048104;28;20373;-81
2022/09/25 00:27:12;;;;;;;1.10;0.70;;;;;;;;;;5050643;28;20024;-82
2022/09/25 00:29:38;;;;;;;0.75;0.52;;;;;;;;;;5050417;28;20036;-82
2022/09/25 00:32:05;;;;;;;0.40;0.40;;;;;;;;;;5052313;28;20082;-83
2022/09/25 00:34:31;;;;;;;0.50;0.50;;;;;;;;;;5052173;28;20428;-83
2022/09/25 00:36:56;;;;;;;0.32;0.32;;;;;;;;;;5045680;28;20040;-83
2022/09/25 00:39:22;;;;;;;0.60;0.60;;;;;;;;;;5049800;28;20564;-82
2022/09/25 00:41:47;;;;;;;0.63;0.60;;;;;;;;;;5051864;28;20083;-82
2022/09/25 00:44:55;;;;;;;0.20;0.20;;;;;;;;;;5050891;28;20539;-83
2022/09/25 00:47:33;;;;;;;0.35;0.35;;;;;;;;;;5052326;28;20094;-82
2022/09/25 00:50:00;;;;;;;0.45;0.45;;;;;;;;;;5050913;28;20041;-82
2022/09/25 00:52:27;;;;;;;0.20;0.20;;;;;;;;;;5050270;28;20431;-83
2022/09/25 00:55:06;;;;;;;0.15;0.15;;;;;;;;;;5050625;28;20041;-84
2022/09/25 00:57:35;;;;;;;0.30;0.30;;;;;;;;;;5049412;28;20037;-81
2022/09/25 01:00:06;;;;;;;0.13;0.13;;;;;;;;;;5050170;28;20059;-82
2022/09/25 01:02:35;;;;;;;0.38;0.38;;;;;;;;;;5050077;28;20104;-84
2022/09/25 01:05:05;;;;;;;0.32;0.32;;;;;;;;;;5050788;28;20128;-82
2022/09/25 01:07:35;;;;;;;0.40;0.40;;;;;;;;;;5051437;28;20033;-83
2022/09/25 01:10:01;;;;;;;2.35;0.77;;;;;;;;;;5048649;28;20112;-81
2022/09/25 01:12:27;;;;;;;0.65;0.63;;;;;;;;;;5050180;28;20029;-82
2022/09/25 01:14:56;;;;;;;1.00;0.80;;;;;;;;;;5050165;28;20044;-82
2022/09/25 01:17:28;;;;;;;0.30;0.30;;;;;;;;;;5051612;28;20048;-85
2022/09/25 01:20:31;;;;;;;0.10;0.10;;;;;;;;;;5056670;28;20037;-83
2022/09/25 01:23:14;;;;;;;0.40;0.40;;;;;;;;;;5053438;28;20537;-82
2022/09/25 01:25:55;;;;;;;0.35;0.35;;;;;;;;;;5052558;28;20025;-81
2022/09/25 01:28:48;;;;;;;0.47;0.47;;;;;;;;;;5053832;28;20048;-82
2022/09/25 01:31:28;;;;;;;0.17;0.17;;;;;;;;;;5051029;28;20056;-82
2022/09/25 01:34:18;;;;;;;0.10;0.10;;;;;;;;;;5056052;28;20488;-82
2022/09/25 01:36:57;;;;;;;0.40;0.40;;;;;;;;;;5051417;28;20318;-83
2022/09/25 01:39:36;;;;;;;0.52;0.50;;;;;;;;;;5053658;28;20329;-82
2022/09/25 01:42:10;;;;;;;0.50;0.50;;;;;;;;;;5053681;28;20106;-82
2022/09/25 01:44:43;;;;;;;0.88;0.45;;;;;;;;;;5067516;28;20071;-83
2022/09/25 01:47:13;;;;;;;1.55;0.52;;;;;;;;;;5052147;28;20384;-83
2022/09/25 01:49:46;;;;;;;0.50;0.50;;;;;;;;;;5050573;28;20032;-82
2022/09/25 01:52:15;;;;;;;0.25;0.25;;;;;;;;;;5052187;28;20024;-82
2022/09/25 01:54:46;;;;;;;0.43;0.30;;;;;;;;;;5050465;28;20048;-82
2022/09/25 01:57:20;;;;;;;0.68;0.47;;;;;;;;;;5053355;28;20035;-84
2022/09/25 02:00:02;;;;;;;0.30;0.30;;;;;;;;;;5052885;28;20025;-82
2022/09/25 02:02:35;;;;;;;0.25;0.25;;;;;;;;;;5053239;28;20058;-82
2022/09/25 02:05:19;;;;;;;0.30;0.30;;;;;;;;;;5052148;28;20483;-83
2022/09/25 02:07:49;;;;;;;0.52;0.52;;;;;;;;;;5052114;28;20358;-83
2022/09/25 02:10:27;;;;;;;0.28;0.28;;;;;;;;;;5050629;28;20488;-83
2022/09/25 02:12:57;;;;;;;0.50;0.50;;;;;;;;;;5052993;28;20032;-84
2022/09/25 02:15:35;;;;;;;0.98;0.70;;;;;;;;;;5050147;28;20486;-82
2022/09/25 02:21:11;;;;;;;0.73;0.70;;;;;;;;;;5053519;28;20032;-83
2022/09/25 02:23:39;;;;;;;0.73;0.73;;;;;;;;;;5051110;28;20056;-82
2022/09/25 02:26:08;;;;;;;0.47;0.47;;;;;;;;;;5051721;28;20025;-82
2022/09/25 02:28:35;;;;;;;0.80;0.55;;;;;;;;;;5052558;28;20400;-82
2022/09/25 02:31:03;;;;;;;0.55;0.22;;;;;;;;;;5050706;28;20028;-82
2022/09/25 02:33:30;;;;;;;0.55;0.55;;;;;;;;;;5052481;28;20481;-81
2022/09/25 02:35:57;;;;;;;0.85;0.75;;;;;;;;;;5053865;28;20094;-82
2022/09/25 02:38:22;;;;;;;1.38;0.98;;;;;;;;;;5053606;28;20037;-83
2022/09/25 02:41:01;;;;;;;0.65;0.50;;;;;;;;;;5051405;28;20535;-83
2022/09/25 02:43:46;;;;;;;1.05;0.85;;;;;;;;;;5051803;28;20033;-82
2022/09/25 02:46:21;;;;;;;0.35;0.35;;;;;;;;;;5052083;28;20517;-83
2022/09/25 02:48:53;;;;;;;0.63;0.57;;;;;;;;;;5051014;28;20029;-83
2022/09/25 02:51:32;;;;;;;0.63;0.63;;;;;;;;;;5050744;28;20024;-82
2022/09/25 02:54:05;;;;;;;0.30;0.30;;;;;;;;;;5052882;28;20427;-82
2022/09/25 02:56:50;;;;;;;0.88;0.68;;;;;;;;;;5051536;28;20112;-82
2022/09/25 02:59:28;;;;;;;0.68;0.68;;;;;;;;;;5051671;28;20127;-82
2022/09/25 03:01:55;;;;;;;0.70;0.43;;;;;;;;;;5049916;28;20052;-81
2022/09/25 03:04:22;;;;;;;0.30;0.30;;;;;;;;;;5051809;28;20041;-82
2022/09/25 03:06:48;;;;;;;0.50;0.50;;;;;;;;;;5052056;28;20025;-83
2022/09/25 03:09:17;;;;;;;0.30;0.30;;;;;;;;;;5050965;28;20443;-82
2022/09/25 03:11:43;;;;;;;0.55;0.55;;;;;;;;;;5050231;28;20032;-82
2022/09/25 03:14:09;;;;;;;0.80;0.70;;;;;;;;;;5051489;28;20028;-82
2022/09/25 03:16:51;;;;;;;0.40;0.40;;;;;;;;;;5050114;28;20485;-81
2022/09/25 03:19:21;;;;;;;2.38;1.15;;;;;;;;;;5050102;28;20021;-82
2022/09/25 03:21:47;;;;;;;0.75;0.45;;;;;;;;;;5051978;28;20029;-82
2022/09/25 03:24:16;;;;;;;0.75;0.30;;;;;;;;;;5051388;28;20059;-83
2022/09/25 03:26:42;;;;;;;0.17;0.17;;;;;;;;;;5050047;28;20084;-82
2022/09/25 03:29:07;;;;;;;0.75;0.75;;;;;;;;;;5053686;28;20024;-83
2022/09/25 03:31:33;;;;;;;0.55;0.55;;;;;;;;;;5050638;28;20052;-83
2022/09/25 03:33:59;;;;;;;0.88;0.63;;;;;;;;;;5054364;28;20043;-83
2022/09/25 03:36:27;;;;;;;0.50;0.50;;;;;;;;;;5051372;28;20029;-82
2022/09/25 03:38:58;;;;;;;0.35;0.35;;;;;;;;;;5054247;28;20033;-81
2022/09/25 03:41:26;;;;;;;0.88;0.70;;;;;;;;;;5049932;28;20025;-82
2022/09/25 03:43:52;;;;;;;0.20;0.20;;;;;;;;;;5051771;28;20098;-83
2022/09/25 03:46:23;;;;;;;1.08;1.00;;;;;;;;;;5050756;28;20024;-83
2022/09/25 03:48:51;;;;;;;1.38;1.00;;;;;;;;;;5051204;28;20115;-81
2022/09/25 03:51:18;;;;;;;0.30;0.30;;;;;;;;;;5048698;28;20546;-83
2022/09/25 03:53:44;;;;;;;0.63;0.63;;;;;;;;;;5051355;28;20017;-83
2022/09/25 03:56:15;;;;;;;0.22;0.22;;;;;;;;;;5051308;28;20033;-83
2022/09/25 03:58:42;;;;;;;0.85;0.50;;;;;;;;;;5050479;28;20029;-84
2022/09/25 04:01:09;;;;;;;0.47;0.38;;;;;;;;;;5049944;28;20029;-82
2022/09/25 04:03:36;;;;;;;0.50;0.50;;;;;;;;;;5048781;28;20401;-83
2022/09/25 04:06:06;;;;;;;0.30;0.30;;;;;;;;;;5051042;28;20071;-83
2022/09/25 04:08:31;;;;;;;;;;;;;;;;;;5050206;28;20025;-85
2022/09/25 04:11:00;;;;;;;1.05;0.95;;;;;;;;;;5048987;28;20335;-83
2022/09/25 04:13:31;;;;;;;0.10;0.10;;;;;;;;;;5051205;28;20064;-83
2022/09/25 04:16:00;;;;;;;0.15;0.15;;;;;;;;;;5050324;28;20021;-84
2022/09/25 04:18:30;;;;;;;0.45;0.45;;;;;;;;;;5052267;28;20053;-83
2022/09/25 04:21:04;;;;;;;0.52;0.25;;;;;;;;;;5066324;28;20021;-83
2022/09/25 04:23:30;;;;;;;0.98;0.77;;;;;;;;;;5050234;28;20082;-84
2022/09/25 04:25:56;;;;;;;0.50;0.50;;;;;;;;;;5049297;28;21209;-84
2022/09/25 04:28:22;;;;;;;0.90;0.70;;;;;;;;;;5049433;28;20021;-83
2022/09/25 04:30:48;;;;;;;0.38;0.38;;;;;;;;;;5049686;28;20040;-83
2022/09/25 04:36:00;;;;;;;1.95;0.68;;;;;;;;;;5051169;28;20415;-84
2022/09/25 04:38:26;;;;;;;1.13;1.05;;;;;;;;;;5049802;28;20028;-84
2022/09/25 04:40:52;;;;;;;0.63;0.63;;;;;;;;;;5050886;28;20032;-85
2022/09/25 04:43:17;;;;;;;0.40;0.40;;;;;;;;;;5049956;28;20055;-84
2022/09/25 04:45:43;;;;;;;1.33;1.23;;;;;;;;;;5049682;28;20079;-84
2022/09/25 04:48:08;;;;;;;0.85;0.73;;;;;;;;;;5049562;28;20021;-83
2022/09/25 04:50:34;;;;;;;0.32;0.32;;;;;;;;;;5052685;28;20397;-83
2022/09/25 04:53:00;;;;;;;0.90;0.60;;;;;;;;;;5054579;28;20107;-83
2022/09/25 04:55:26;;;;;;;1.17;1.10;;;;;;;;;;5052670;28;20041;-81
2022/09/25 04:57:58;;;;;;;0.45;0.45;;;;;;;;;;5053222;28;20083;-80
2022/09/25 05:00:27;;;;;;;1.65;1.23;;;;;;;;;;5051816;28;20037;-80
2022/09/25 05:02:52;;;;;;;1.00;0.93;;;;;;;;;;5053979;28;20436;-79
2022/09/25 05:05:18;;;;;;;1.10;0.70;;;;;;;;;;5055686;28;20032;-81
2022/09/25 05:07:51;;;;;;;1.02;0.95;;;;;;;;;;5056172;28;20032;-81
2022/09/25 05:10:16;;;;;;;0.22;0.22;;;;;;;;;;5051472;28;20025;-82
2022/09/25 05:12:42;;;;;;;0.88;0.82;;;;;;;;;;5052586;28;20029;-83
2022/09/25 05:15:09;;;;;;;0.90;0.60;;;;;;;;;;5052085;28;20029;-82
2022/09/25 05:17:34;;;;;;;0.50;0.50;;;;;;;;;;5053974;28;20032;-83
2022/09/25 05:20:00;;;;;;;0.85;0.60;;;;;;;;;;5054052;28;20413;-81
2022/09/25 05:22:25;;;;;;;1.00;0.90;;;;;;;;;;5053715;28;20025;-83
2022/09/25 05:24:52;;;;;;;0.60;0.60;;;;;;;;;;5053614;28;20092;-82
2022/09/25 05:27:17;;;;;;;0.50;0.50;;;;;;;;;;5053226;28;20025;-84
2022/09/25 05:29:43;;;;;;;0.45;0.45;;;;;;;;;;5053826;28;20488;-84
2022/09/25 05:32:08;;;;;;;1.35;0.60;;;;;;;;;;5052360;28;20039;-84
2022/09/25 05:34:34;;;;;;;1.10;0.65;;;;;;;;;;5054766;28;20021;-85
2022/09/25 05:36:59;;;;;;;1.45;1.02;;;;;;;;;;5053921;28;20116;-85
2022/09/25 05:39:25;;;;;;;1.30;1.13;;;;;;;;;;5051895;28;20412;-82
2022/09/25 05:41:51;;;;;;;0.93;0.85;;;;;;;;;;5052245;28;20082;-83
2022/09/25 05:44:16;;;;;;;2.22;1.08;;;;;;;;;;5052580;28;20025;-84
2022/09/25 05:46:45;;;;;;;0.77;0.75;;;;;;;;;;5053141;28;20036;-83
2022/09/25 05:49:10;;;;;;;1.25;1.08;;;;;;;;;;5051911;28;20392;-83
2022/09/25 05:51:35;;;;;;;1.83;1.55;;;;;;;;;;5053307;28;20121;-85
2022/09/25 05:54:01;;;;;;;2.95;1.65;;;;;;;;;;5053094;28;20096;-83
2022/09/25 05:56:26;;;;;;;3.15;1.25;;;;;;;;;;5051683;28;20029;-82
2022/09/25 05:58:57;;;;;;;2.05;1.85;;;;;;;;;;5050533;28;20039;-84
2022/09/25 06:04:36;;;;;;;1.80;1.70;;;;;;;;;;5052704;28;20063;-84
2022/09/25 06:07:02;;;;;;;3.10;1.23;;;;;;;;;;5052270;28;20021;-84
2022/09/25 06:09:36;;;;;;;0.82;0.80;;;;;;;;;;5052356;28;20085;-84
2022/09/25 06:12:02;;;;;;;1.45;1.15;;;;;;;;;;5052837;28;20040;-83
2022/09/25 06:14:29;;;;;;;1.13;1.00;;;;;;;;;;5061587;28;20024;-82
2022/09/25 06:16:54;;;;;;;2.88;1.80;;;;;;;;;;5051231;28;20454;-83
2022/09/25 06:19:19;;;;;;;8.57;2.20;;;;;;;;;;5053068;28;20017;-84
2022/09/25 06:21:46;;;;;;;1.42;1.27;;;;;;;;;;5053547;28;20037;-83
2022/09/25 06:24:11;;;;;;;1.30;1.00;;;;;;;;;;5052656;28;20021;-86
2022/09/25 06:26:39;;;;;;;2.67;1.35;;;;;;;;;;5054532;28;20049;-83
2022/09/25 06:29:06;;;;;;;2.92;1.30;;;;;;;;;;5054747;28;20029;-83
2022/09/25 06:31:32;;;;;;;3.03;1.88;;;;;;;;;;5054338;28;20028;-85
2022/09/25 06:33:58;;;;;;;1.75;1.42;;;;;;;;;;5050427;28;20045;-84
2022/09/25 06:36:23;;;;;;;1.15;1.00;;;;;;;;;;5052381;28;20029;-84
2022/09/25 06:38:53;;;;;;;2.92;1.63;;;;;;;;;;5052400;28;20530;-83
2022/09/25 06:41:18;;;;;;;1.77;1.13;;;;;;;;;;5052187;28;20032;-85
2022/09/25 06:43:47;;;;;;;2.03;1.58;;;;;;;;;;5051534;28;20033;-83
2022/09/25 06:46:13;;;;;;;1.23;0.87;;;;;;;;;;5051983;28;20021;-82
2022/09/25 06:48:39;;;;;;;2.58;1.15;;;;;;;;;;5052221;28;20036;-81
2022/09/25 06:51:07;;;;;;;1.52;1.42;;;;;;;;;;5049900;28;20477;-81
2022/09/25 06:53:33;;;;;;;1.58;1.42;;;;;;;;;;5052099;28;20133;-83
2022/09/25 06:55:59;;;;;;;3.00;1.40;;;;;;;;;;5050700;28;20455;-84
2022/09/25 06:58:25;;;;;;;2.88;2.00;;;;;;;;;;5050696;28;20025;-83
2022/09/25 07:00:53;;;;;;;6.78;4.15;;;;;;;;;;5054300;28;20457;-83
2022/09/25 07:06:06;;;;;;;2.33;1.50;;;;;;;;;;5053630;28;20032;-84
2022/09/25 07:08:32;;;;;;;8.60;1.00;;;;;;;;;;5051855;28;20028;-84
2022/09/25 07:10:58;;;;;;;0.93;0.90;;;;;;;;;;5051050;28;20028;-84
2022/09/25 07:13:28;;;;;;;1.27;1.17;;;;;;;;;;5050782;28;20032;-84
2022/09/25 07:15:54;;;;;;;2.25;1.45;;;;;;;;;;5052608;28;20496;-84
2022/09/25 07:18:21;;;;;;;1.23;0.47;;;;;;;;;;5051486;28;20541;-82
2022/09/25 07:20:47;;;;;;;2.30;1.35;;;;;;;;;;5055027;28;20032;-86
2022/09/25 07:23:13;;;;;;;2.75;0.70;;;;;;;;;;5054964;28;20025;-82
2022/09/25 07:25:39;;;;;;;1.85;1.55;;;;;;;;;;5050160;28;20032;-83
2022/09/25 07:28:06;;;;;;;1.77;1.10;;;;;;;;;;5052812;28;20028;-83
2022/09/25 07:30:32;;;;;;;0.80;0.80;;;;;;;;;;5053763;28;20048;-84
2022/09/25 07:32:57;;;;;;;2.10;1.90;;;;;;;;;;5055386;28;20114;-82
2022/09/25 07:35:23;;;;;;;1.67;1.50;;;;;;;;;;5053758;28;20052;-84
2022/09/25 07:37:49;;;;;;;1.77;1.50;;;;;;;;;;5055259;28;20085;-84
2022/09/25 07:40:14;;;;;;;1.30;0.85;;;;;;;;;;5052861;28;20025;-85
2022/09/25 07:42:40;;;;;;;1.52;0.77;;;;;;;;;;5053069;28;20364;-85
2022/09/25 07:45:06;;;;;;;1.65;1.20;;;;;;;;;;5052275;28;20044;-83
2022/09/25 07:47:32;;;;;;;2.53;1.20;;;;;;;;;;5052096;28;20032;-82
2022/09/25 07:49:57;;;;;;;1.88;1.15;;;;;;;;;;5052016;28;20035;-83
2022/09/25 07:52:23;;;;;;;1.00;0.65;;;;;;;;;;5051654;28;20056;-82
2022/09/25 07:54:48;;;;;;;1.35;1.25;;;;;;;;;;5054654;28;20059;-82
2022/09/25 07:57:14;;;;;;;1.08;0.73;;;;;;;;;;5050747;28;20025;-84
2022/09/25 07:59:40;;;;;;;1.38;1.08;;;;;;;;;;5049956;28;20032;-85
2022/09/25 08:02:05;;;;;;;0.35;0.35;;;;;;;;;;5051067;28;20036;-81
2022/09/25 08:04:31;;;;;;;0.77;0.77;;;;;;;;;;5052773;28;20048;-82
2022/09/25 08:06:59;;;;;;;0.70;0.40;;;;;;;;;;5052480;28;20094;-83
2022/09/25 08:09:25;;;;;;;0.77;0.55;;;;;;;;;;5067591;28;20479;-84
2022/09/25 08:11:50;;;;;;;3.42;0.68;;;;;;;;;;5052535;28;20096;-84
2022/09/25 08:14:17;;;;;;;2.85;1.77;;;;;;;;;;5055464;28;20043;-84
2022/09/25 08:16:42;;;;;;;11.45;6.05;;;;;;;;;;5052773;28;20041;-83
2022/09/25 08:19:10;;;;;;;2.00;1.17;;;;;;;;;;5054326;28;20037;-83
2022/09/25 08:21:35;;;;;;;1.95;1.77;;;;;;;;;;5052645;28;20106;-82
2022/09/25 08:24:01;;;;;;;0.77;0.70;;;;;;;;;;5051879;28;20052;-81
2022/09/25 08:26:30;;;;;;;2.83;2.28;;;;;;;;;;5057008;28;20523;-84
2022/09/25 08:28:55;;;;;;;0.55;0.55;;;;;;;;;;5060546;28;20109;-84
2022/09/25 08:31:21;;;;;;;1.60;0.93;;;;;;;;;;5060090;28;20458;-84
2022/09/25 08:33:48;;;;;;;1.20;0.93;;;;;;;;;;5055991;28;20108;-84
2022/09/25 08:36:15;;;;;;;2.30;1.27;;;;;;;;;;5054815;28;20028;-81
2022/09/25 08:38:40;;;;;;;0.85;0.65;;;;;;;;;;5056312;28;20033;-81
2022/09/25 08:41:10;;;;;;;1.85;1.27;;;;;;;;;;5056873;28;20044;-83
2022/09/25 08:43:41;;;;;;;0.80;0.80;;;;;;;;;;5054160;28;20049;-81
2022/09/25 08:49:10;;;;;;;0.50;0.50;;;;;;;;;;5060084;28;20055;-81
2022/09/25 08:51:37;;;;;;;2.20;1.30;;;;;;;;;;5054672;28;20116;-82
2022/09/25 08:54:04;;;;;;;0.70;0.57;;;;;;;;;;5052845;28;20040;-83
2022/09/25 08:56:31;;;;;;;2.55;1.63;;;;;;;;;;5056049;28;20028;-82
2022/09/25 08:59:25;;;;;;;3.55;1.63;;;;;;;;;;5057229;28;20025;-85
2022/09/25 09:01:54;;;;;;;0.88;0.70;;;;;;;;;;5052630;28;20044;-83
2022/09/25 09:04:31;;;;;;;0.68;0.55;;;;;;;;;;5056111;28;20077;-81
2022/09/25 09:07:31;;;;;;;1.75;0.90;;;;;;;;;;5057198;28;20400;-81
2022/09/25 09:10:27;;;;;;;2.15;1.20;;;;;;;;;;5031344;28;20566;-84
2022/09/25 09:13:20;;;;;;;1.23;0.60;;;;;;;;;;5052873;28;20025;-83
2022/09/25 09:15:54;;;;;;;0.70;0.50;;;;;;;;;;5052788;28;20033;-82
2022/09/25 09:18:22;;;;;;;0.80;0.52;;;;;;;;;;5052156;28;20067;-83
2022/09/25 09:20:55;;;;;;;0.45;0.30;;;;;;;;;;5054973;28;20025;-84
2022/09/25 09:23:23;;;;;;;1.38;0.95;;;;;;;;;;5053058;28;20025;-83
2022/09/25 09:25:48;;;;;;;1.60;1.17;;;;;;;;;;5052335;28;20029;-81
2022/09/25 09:28:35;;;;;;;1.17;0.68;;;;;;;;;;5052883;28;20092;-84
2022/09/25 09:31:08;;;;;;;0.73;0.68;;;;;;;;;;5051749;28;20829;-83
2022/09/25 09:34:01;;;;;;;1.73;1.27;;;;;;;;;;5051871;28;20481;-82
2022/09/25 09:37:13;;;;;;;2.03;1.05;;;;;;;;;;5050232;28;20049;-84
2022/09/25 09:39:49;;;;;;;0.73;0.68;;;;;;;;;;5025614;28;20039;-83
2022/09/25 09:42:24;;;;;;;1.60;1.08;;;;;;;;;;5054196;28;20036;-83
2022/09/25 09:45:27;;;;;;;1.40;1.27;;;;;;;;;;5049674;28;20017;-83
2022/09/25 09:48:08;;;;;;;0.45;0.45;;;;;;;;;;5050665;28;20024;-82
2022/09/25 09:50:52;;;;;;;0.43;0.43;;;;;;;;;;5052789;28;20040;-82
2022/09/25 09:53:41;;;;;;;2.05;0.70;;;;;;;;;;5051664;28;20032;-84
2022/09/25 09:56:15;;;;;;;2.95;1.38;;;;;;;;;;5051631;28;20675;-83
2022/09/25 09:58:49;;;;;;;3.63;2.58;;;;;;;;;;5050071;28;20435;-82
2022/09/25 10:01:18;;;;;;;1.98;1.13;;;;;;;;;;5050937;28;20134;-84
2022/09/25 10:03:46;;;;;;;1.52;0.82;;;;;;;;;;5053247;28;20044;-84
2022/09/25 10:06:14;;;;;;;1.90;1.25;;;;;;;;;;5051771;28;20061;-84
2022/09/25 10:08:41;;;;;;;2.85;1.23;;;;;;;;;;5051302;28;20033;-83
2022/09/25 10:11:18;;;;;;;0.55;0.55;;;;;;;;;;5051300;28;20034;-85
2022/09/25 10:13:44;;;;;;;1.35;0.75;;;;;;;;;;5052274;28;20021;-82
2022/09/25 10:16:14;;;;;;;1.13;1.05;;;;;;;;;;5051782;28;20051;-83
2022/09/25 10:18:49;;;;;;;1.60;0.85;;;;;;;;;;5051638;28;20060;-84
2022/09/25 10:21:20;;;;;;;0.68;0.63;;;;;;;;;;5053441;28;20506;-87
2022/09/25 10:23:45;;;;;;;3.85;1.80;;;;;;;;;;5049836;28;20029;-86
2022/09/25 10:26:24;;;;;;;1.52;1.02;;;;;;;;;;5051904;28;20031;-87
2022/09/25 10:28:50;;;;;;;0.63;0.60;;;;;;;;;;5053581;28;20112;-89
2022/09/25 10:31:17;;;;;;;1.10;0.68;;;;;;;;;;5053014;28;20111;-87
2022/09/25 10:34:15;;;;;;;1.40;0.93;;;;;;;;;;5052488;28;20029;-88
2022/09/25 10:37:17;;;;;;;1.60;0.75;;;;;;;;;;5053303;28;20033;-89
2022/09/25 10:39:42;;;;;;;0.85;0.55;;;;;;;;;;5051078;28;20520;-89
2022/09/25 10:42:38;;;;;;;1.20;0.57;;;;;;;;;;5056061;28;20052;-87
2022/09/25 10:45:21;;;;;;;0.73;0.57;;;;;;;;;;5051576;28;20495;-86
2022/09/25 10:50:35;;;;;;;1.85;0.85;;;;;;;;;;5051540;28;20443;-90
2022/09/25 10:53:03;;;;;;;0.75;0.75;;;;;;;;;;5052613;28;20021;-88
2022/09/25 10:55:29;;;;;;;1.13;0.75;;;;;;;;;;5049386;28;20056;-88
2022/09/25 10:58:09;;;;;;;0.65;0.60;;;;;;;;;;5053856;28;20060;-87
2022/09/25 11:00:57;;;;;;;0.52;0.50;;;;;;;;;;5051477;28;20037;-86
2022/09/25 11:03:39;;;;;;;1.55;1.27;;;;;;;;;;5050652;28;20514;-85
2022/09/25 11:06:19;;;;;;;0.90;0.70;;;;;;;;;;5053180;28;20025;-83
2022/09/25 11:08:45;;;;;;;3.60;2.53;;;;;;;;;;5050246;28;20533;-86
2022/09/25 11:11:12;;;;;;;2.03;1.85;;;;;;;;;;5052304;28;20072;-85
2022/09/25 11:13:51;;;;;;;1.90;1.20;;;;;;;;;;5051811;28;20082;-86
2022/09/25 11:16:18;;;;;;;3.05;0.98;;;;;;;;;;5050996;28;20083;-86
2022/09/25 11:19:03;;;;;;;1.55;1.30;;;;;;;;;;5051525;28;20039;-86
2022/09/25 11:21:38;;;;;;;1.98;0.85;;;;;;;;;;5053539;28;20162;-88
2022/09/25 11:24:16;;;;;;;1.05;0.68;;;;;;;;;;5055117;28;20424;-86
2022/09/25 11:27:09;;;;;;;1.33;0.90;;;;;;;;;;5053733;28;20037;-87
2022/09/25 11:29:43;;;;;;;1.15;0.70;;;;;;;;;;5052714;28;20021;-86
2022/09/25 11:32:30;;;;;;;2.22;0.75;;;;;;;;;;5052182;28;20036;-86
2022/09/25 11:35:13;;;;;;;1.50;0.88;;;;;;;;;;5050489;28;20056;-87
2022/09/25 11:37:44;;;;;;;0.57;0.57;;;;;;;;;;5051845;28;20032;-84
2022/09/25 11:43:08;;;;;;;7.78;0.73;;;;;;;;;;5052269;28;20373;-86
2022/09/25 11:45:50;;;;;;;1.60;0.73;;;;;;;;;;5050545;28;20699;-88
2022/09/25 11:48:33;;;;;;;1.10;0.73;;;;;;;;;;5052792;28;20154;-88
2022/09/25 11:51:06;;;;;;;0.75;0.75;;;;;;;;;;5051418;28;20489;-84
2022/09/25 11:53:49;;;;;;;0.80;0.80;;;;;;;;;;5051913;28;20142;-90
2022/09/25 11:56:43;;;;;;;0.52;0.52;;;;;;;;;;5053391;28;20021;-88
2022/09/25 11:59:31;;;;;;;1.55;1.02;;;;;;;;;;5054862;28;20457;-87
2022/09/25 12:02:09;;;;;;;0.88;0.85;;;;;;;;;;5049967;28;20029;-85
2022/09/25 12:04:38;;;;;;;0.90;0.75;;;;;;;;;;5052947;28;20040;-86
2022/09/25 12:07:32;;;;;;;1.05;0.82;;;;;;;;;;5052450;28;20029;-79
2022/09/25 12:10:18;;;;;;;1.27;0.98;;;;;;;;;;5052048;28;20112;-86
2022/09/25 12:12:43;;;;;;;1.42;1.20;;;;;;;;;;5050830;28;20017;-85
2022/09/25 12:15:16;;;;;;;1.90;1.45;;;;;;;;;;5052433;28;20039;-85
2022/09/25 12:18:16;;;;;;;0.90;0.60;;;;;;;;;;5049667;28;20029;-85
2022/09/25 12:20:53;;;;;;;1.73;0.98;;;;;;;;;;5030855;28;20033;-82
2022/09/25 12:23:27;;;;;;;1.05;0.90;;;;;;;;;;5048731;28;20491;-84
2022/09/25 12:26:23;;;;;;;14.35;8.18;;;;;;;;;;5051618;28;20017;-78
2022/09/25 12:29:09;;;;;;;2.28;1.50;;;;;;;;;;5049920;28;20457;-79
2022/09/25 12:31:52;;;;;;;5.38;2.17;;;;;;;;;;5048707;28;20071;-79
2022/09/25 12:34:43;;;;;;;0.85;0.77;;;;;;;;;;5048239;28;20021;-80
2022/09/25 12:37:30;;;;;;;1.60;1.00;;;;;;;;;;5046585;28;20051;-80
2022/09/25 12:40:02;;;;;;;2.55;1.42;;;;;;;;;;5048918;28;20544;-83
2022/09/25 12:43:01;;;;;;;1.33;0.80;;;;;;;;;;5048159;28;20472;-87
2022/09/25 12:45:48;;;;;;;;;;;;;;;;;;5049799;28;20033;-80
2022/09/25 12:48:23;;;;;;;2.30;1.40;;;;;;;;;;5047011;28;19912;-83
2022/09/25 12:51:03;;;;;;;1.30;0.93;;;;;;;;;;5050908;28;20028;-83
2022/09/25 12:53:56;;;;;;;1.38;0.90;;;;;;;;;;5052111;28;20115;-83
2022/09/25 12:56:31;;;;;;;1.38;1.08;;;;;;;;;;5050790;28;20021;-82
2022/09/25 12:59:12;;;;;;;1.20;1.10;;;;;;;;;;5050017;28;20111;-83
2022/09/25 13:02:01;;;;;;;1.52;1.10;;;;;;;;;;5048694;28;20425;-83
2022/09/25 13:04:48;;;;;;;1.55;1.00;;;;;;;;;;5050284;28;20060;-82
2022/09/25 13:08:01;;;;;;;1.75;1.33;;;;;;;;;;5050008;28;20572;-83
2022/09/25 13:10:37;;;;;;;1.40;1.00;;;;;;;;;;5008167;28;20059;-82
2022/09/25 13:13:08;;;;;;;3.20;1.20;;;;;;;;;;5011882;28;20099;-80
2022/09/25 13:15:37;;;;;;;1.92;1.20;;;;;;;;;;5037503;28;20039;-82
2022/09/25 13:18:04;;;;;;;12.25;7.28;;;;;;;;;;5053493;28;20036;-82
2022/09/25 13:20:33;;;;;;;4.13;2.47;;;;;;;;;;5052811;28;20029;-82
2022/09/25 13:23:01;;;;;;;;;;;;;;;;;;5052920;28;20036;-82
2022/09/25 13:25:28;;;;;;;2.45;1.10;;;;;;;;;;5053444;28;19942;-83
2022/09/25 13:28:04;;;;;;;0.90;0.82;;;;;;;;;;5051846;28;20043;-81
2022/09/25 13:30:30;;;;;;;0.90;0.80;;;;;;;;;;5052782;28;20075;-82
2022/09/25 13:32:58;;;;;;;0.88;0.77;;;;;;;;;;5052716;28;20051;-84
2022/09/25 13:35:25;;;;;;;2.15;1.00;;;;;;;;;;5053206;28;20457;-84
2022/09/25 13:37:53;;;;;;;1.00;0.90;;;;;;;;;;5052974;28;20043;-81
2022/09/25 13:40:41;;;;;;;1.55;1.10;;;;;;;;;;5051311;28;20043;-82
2022/09/25 13:43:28;;;;;;;2.90;1.15;;;;;;;;;;5051627;28;20036;-83
2022/09/25 13:46:21;;;;;;;1.02;0.82;;;;;;;;;;5052124;28;20032;-82
2022/09/25 13:48:51;;;;;;;4.78;1.15;;;;;;;;;;5048813;28;20040;-82
2022/09/25 13:51:19;;;;;;;;;;;;;;;;;;5053724;28;20786;-82
2022/09/25 13:54:22;;;;;;;1.42;1.00;;;;;;;;;;5053380;28;19912;-83
2022/09/25 13:56:49;;;;;;;0.90;0.70;;;;;;;;;;5052668;28;20040;-82
2022/09/25 13:59:14;;;;;;;1.63;0.88;;;;;;;;;;5053620;28;20465;-83
2022/09/25 14:01:44;;;;;;;1.63;1.05;;;;;;;;;;5052587;28;20028;-81
2022/09/25 14:04:19;;;;;;;0.80;0.52;;;;;;;;;;5051835;28;20053;-82
2022/09/25 14:06:46;;;;;;;2.20;1.25;;;;;;;;;;5051323;28;20380;-82
2022/09/25 14:09:16;;;;;;;1.60;0.75;;;;;;;;;;5051461;28;20107;-83
2022/09/25 14:11:49;;;;;;;1.05;0.93;;;;;;;;;;5053036;28;20052;-83
2022/09/25 14:14:25;;;;;;;1.45;1.23;;;;;;;;;;5051339;28;20032;-82
2022/09/25 14:16:55;;;;;;;0.88;0.75;;;;;;;;;;5049755;28;20031;-81
2022/09/25 14:19:27;;;;;;;0.88;0.82;;;;;;;;;;5050558;28;20037;-81
2022/09/25 14:21:53;;;;;;;1.05;0.88;;;;;;;;;;5053337;28;20033;-82
2022/09/25 14:24:30;;;;;;;1.38;0.90;;;;;;;;;;5050454;28;20029;-83
2022/09/25 14:27:00;;;;;;;3.15;0.82;;;;;;;;;;5050637;28;20052;-83
2022/09/25 14:29:31;;;;;;;2.22;1.35;;;;;;;;;;5051573;28;20083;-84
2022/09/25 14:32:35;;;;;;;1.58;0.90;;;;;;;;;;5048033;28;20121;-83
2022/09/25 14:35:23;;;;;;;0.98;0.75;;;;;;;;;;5018356;28;20045;-82
2022/09/25 14:38:15;;;;;;;0.82;0.77;;;;;;;;;;5051836;28;20017;-81
2022/09/25 14:41:03;;;;;;;1.23;0.60;;;;;;;;;;5052325;28;20078;-81
2022/09/25 14:44:13;;;;;;;1.02;0.80;;;;;;;;;;5050723;28;20020;-82
2022/09/25 14:46:39;;;;;;;2.92;0.90;;;;;;;;;;5052841;28;20472;-83
2022/09/25 14:49:17;;;;;;;0.75;0.52;;;;;;;;;;5050582;28;20355;-83
2022/09/25 14:51:46;;;;;;;1.15;0.63;;;;;;;;;;5052680;28;20029;-83
2022/09/25 14:54:18;;;;;;;0.97;0.77;;;;;;;;;;5053546;28;20040;-83
2022/09/25 14:56:49;;;;;;;0.98;0.73;;;;;;;;;;5052920;28;20286;-82
2022/09/25 14:59:30;;;;;;;0.50;0.47;;;;;;;;;;5049412;28;20032;-83
2022/09/25 15:01:58;;;;;;;2.47;1.00;;;;;;;;;;5052524;28;20029;-82
2022/09/25 15:04:26;;;;;;;1.42;0.93;;;;;;;;;;5051199;28;20059;-84
2022/09/25 15:07:07;;;;;;;1.00;0.90;;;;;;;;;;5052671;28;20100;-80
2022/09/25 15:09:46;;;;;;;1.20;0.98;;;;;;;;;;5050447;28;20029;-79
2022/09/25 15:12:20;;;;;;;1.35;1.00;;;;;;;;;;5048605;28;20025;-81
2022/09/25 15:15:05;;;;;;;6.18;2.55;;;;;;;;;;5051227;28;20021;-79
2022/09/25 15:17:36;;;;;;;1.27;0.95;;;;;;;;;;5051200;28;20037;-81
2022/09/25 15:20:04;;;;;;;0.60;0.60;;;;;;;;;;5052407;28;20423;-80
2022/09/25 15:22:37;;;;;;;1.08;0.70;;;;;;;;;;5049031;28;20435;-84
2022/09/25 15:25:05;;;;;;;7.20;2.90;;;;;;;;;;5051313;28;20489;-82
2022/09/25 15:27:31;;;;;;;3.47;1.38;;;;;;;;;;5051431;28;20028;-83
2022/09/25 15:29:59;;;;;;;4.15;1.92;;;;;;;;;;5053976;28;20167;-80
2022/09/25 15:32:27;;;;;;;1.73;0.98;;;;;;;;;;5049091;28;20025;-81
2022/09/25 15:35:13;;;;;;;5.25;3.20;;;;;;;;;;5049044;28;20065;-81